sensor_id;sensor_type;location;lat;lon;timestamp;P1;durP1;ratioP1;P2;durP2;ratioP2
10945;SDS011;5525;42.648;23.368;2023-02-28T00:00:16;22.80;;;15.40;;
10945;SDS011;5525;42.648;23.368;2023-02-28T00:02:43;23.35;;;14.48;;
10945;SDS011;5525;42.648;23.368;2023-02-28T00:05:12;23.15;;;14.95;;
10945;SDS011;5525;42.648;23.368;2023-02-28T00:07:39;25.85;;;15.88;;
10945;SDS011;5525;42.648;23.368;2023-02-28T00:10:07;23.30;;;15.35;;
10945;SDS011;5525;42.648;23.368;2023-02-28T00:12:36;26.30;;;15.30;;
10945;SDS011;5525;42.648;23.368;2023-02-28T00:15:06;23.13;;;14.77;;
10945;SDS011;5525;42.648;23.368;2023-02-28T00:17:34;25.70;;;15.85;;
10945;SDS011;5525;42.648;23.368;2023-02-28T00:20:01;25.65;;;15.60;;
10945;SDS011;5525;42.648;23.368;2023-02-28T00:22:37;22.30;;;14.07;;
10945;SDS011;5525;42.648;23.368;2023-02-28T00:25:05;23.45;;;14.07;;
10945;SDS011;5525;42.648;23.368;2023-02-28T00:27:33;21.33;;;13.65;;
10945;SDS011;5525;42.648;23.368;2023-02-28T00:30:00;21.83;;;14.13;;
10945;SDS011;5525;42.648;23.368;2023-02-28T00:32:29;22.92;;;14.55;;
10945;SDS011;5525;42.648;23.368;2023-02-28T00:34:56;22.50;;;14.02;;
10945;SDS011;5525;42.648;23.368;2023-02-28T00:37:22;21.50;;;13.95;;
10945;SDS011;5525;42.648;23.368;2023-02-28T00:39:49;22.65;;;14.50;;
10945;SDS011;5525;42.648;23.368;2023-02-28T00:42:16;20.13;;;13.02;;
10945;SDS011;5525;42.648;23.368;2023-02-28T00:44:42;22.35;;;12.85;;
10945;SDS011;5525;42.648;23.368;2023-02-28T00:47:09;22.77;;;14.15;;
10945;SDS011;5525;42.648;23.368;2023-02-28T00:49:37;22.35;;;14.00;;
10945;SDS011;5525;42.648;23.368;2023-02-28T00:52:04;21.40;;;13.95;;
10945;SDS011;5525;42.648;23.368;2023-02-28T00:54:31;23.95;;;14.48;;
10945;SDS011;5525;42.648;23.368;2023-02-28T00:56:58;20.10;;;14.13;;
10945;SDS011;5525;42.648;23.368;2023-02-28T00:59:24;22.58;;;14.52;;
10945;SDS011;5525;42.648;23.368;2023-02-28T01:01:51;22.60;;;14.65;;
10945;SDS011;5525;42.648;23.368;2023-02-28T01:04:18;20.63;;;14.32;;
10945;SDS011;5525;42.648;23.368;2023-02-28T01:06:46;24.85;;;15.10;;
10945;SDS011;5525;42.648;23.368;2023-02-28T01:09:13;25.05;;;15.77;;
10945;SDS011;5525;42.648;23.368;2023-02-28T01:11:40;25.60;;;15.82;;
10945;SDS011;5525;42.648;23.368;2023-02-28T01:14:10;24.13;;;15.63;;
10945;SDS011;5525;42.648;23.368;2023-02-28T01:16:38;25.23;;;16.15;;
10945;SDS011;5525;42.648;23.368;2023-02-28T01:19:05;25.13;;;16.25;;
10945;SDS011;5525;42.648;23.368;2023-02-28T01:21:32;24.92;;;16.27;;
10945;SDS011;5525;42.648;23.368;2023-02-28T01:24:01;24.27;;;15.45;;
10945;SDS011;5525;42.648;23.368;2023-02-28T01:26:28;25.42;;;16.02;;
10945;SDS011;5525;42.648;23.368;2023-02-28T01:28:55;25.25;;;17.30;;
10945;SDS011;5525;42.648;23.368;2023-02-28T01:31:22;28.55;;;18.00;;
10945;SDS011;5525;42.648;23.368;2023-02-28T01:33:49;28.98;;;18.40;;
10945;SDS011;5525;42.648;23.368;2023-02-28T01:36:17;26.98;;;18.02;;
10945;SDS011;5525;42.648;23.368;2023-02-28T01:38:45;30.55;;;18.13;;
10945;SDS011;5525;42.648;23.368;2023-02-28T01:41:16;30.45;;;18.00;;
10945;SDS011;5525;42.648;23.368;2023-02-28T01:43:54;29.95;;;18.17;;
10945;SDS011;5525;42.648;23.368;2023-02-28T01:46:28;27.88;;;17.65;;
10945;SDS011;5525;42.648;23.368;2023-02-28T01:48:56;31.08;;;18.35;;
10945;SDS011;5525;42.648;23.368;2023-02-28T01:51:29;29.52;;;18.27;;
10945;SDS011;5525;42.648;23.368;2023-02-28T01:54:01;28.17;;;18.55;;
10945;SDS011;5525;42.648;23.368;2023-02-28T01:56:32;31.17;;;18.55;;
10945;SDS011;5525;42.648;23.368;2023-02-28T01:59:02;27.13;;;17.45;;
10945;SDS011;5525;42.648;23.368;2023-02-28T02:01:30;26.65;;;17.23;;
10945;SDS011;5525;42.648;23.368;2023-02-28T02:03:57;29.95;;;18.05;;
10945;SDS011;5525;42.648;23.368;2023-02-28T02:06:28;30.48;;;18.33;;
10945;SDS011;5525;42.648;23.368;2023-02-28T02:08:57;27.63;;;17.70;;
10945;SDS011;5525;42.648;23.368;2023-02-28T02:11:23;27.00;;;17.38;;
10945;SDS011;5525;42.648;23.368;2023-02-28T02:14:00;28.15;;;17.73;;
10945;SDS011;5525;42.648;23.368;2023-02-28T02:16:42;25.23;;;17.42;;
10945;SDS011;5525;42.648;23.368;2023-02-28T02:19:28;30.30;;;17.83;;
10945;SDS011;5525;42.648;23.368;2023-02-28T02:25:26;28.90;;;17.30;;
10945;SDS011;5525;42.648;23.368;2023-02-28T02:34:18;28.67;;;17.30;;
10945;SDS011;5525;42.648;23.368;2023-02-28T02:36:53;27.90;;;17.10;;
10945;SDS011;5525;42.648;23.368;2023-02-28T02:39:27;27.83;;;16.33;;
10945;SDS011;5525;42.648;23.368;2023-02-28T02:42:03;30.27;;;16.98;;
10945;SDS011;5525;42.648;23.368;2023-02-28T02:44:40;28.40;;;17.52;;
10945;SDS011;5525;42.648;23.368;2023-02-28T02:47:13;30.40;;;18.08;;
10945;SDS011;5525;42.648;23.368;2023-02-28T02:49:45;30.52;;;18.13;;
10945;SDS011;5525;42.648;23.368;2023-02-28T02:52:16;27.88;;;17.25;;
10945;SDS011;5525;42.648;23.368;2023-02-28T02:54:46;32.15;;;19.40;;
10945;SDS011;5525;42.648;23.368;2023-02-28T02:57:20;32.90;;;18.48;;
10945;SDS011;5525;42.648;23.368;2023-02-28T02:59:50;30.92;;;17.92;;
10945;SDS011;5525;42.648;23.368;2023-02-28T03:02:19;32.55;;;19.70;;
10945;SDS011;5525;42.648;23.368;2023-02-28T03:04:50;31.92;;;18.77;;
10945;SDS011;5525;42.648;23.368;2023-02-28T03:07:19;33.78;;;18.50;;
10945;SDS011;5525;42.648;23.368;2023-02-28T03:09:50;29.60;;;18.25;;
10945;SDS011;5525;42.648;23.368;2023-02-28T03:12:18;29.88;;;18.20;;
10945;SDS011;5525;42.648;23.368;2023-02-28T03:14:50;30.48;;;17.83;;
10945;SDS011;5525;42.648;23.368;2023-02-28T03:17:25;30.55;;;17.83;;
10945;SDS011;5525;42.648;23.368;2023-02-28T03:20:12;32.13;;;19.10;;
10945;SDS011;5525;42.648;23.368;2023-02-28T03:22:51;31.05;;;18.60;;
10945;SDS011;5525;42.648;23.368;2023-02-28T03:25:22;29.73;;;18.52;;
10945;SDS011;5525;42.648;23.368;2023-02-28T03:28:03;32.95;;;18.58;;
10945;SDS011;5525;42.648;23.368;2023-02-28T03:30:36;30.98;;;18.45;;
10945;SDS011;5525;42.648;23.368;2023-02-28T03:33:08;33.03;;;19.30;;
10945;SDS011;5525;42.648;23.368;2023-02-28T03:35:40;45.65;;;20.27;;
10945;SDS011;5525;42.648;23.368;2023-02-28T03:38:11;35.40;;;20.08;;
10945;SDS011;5525;42.648;23.368;2023-02-28T03:40:42;35.78;;;19.10;;
10945;SDS011;5525;42.648;23.368;2023-02-28T03:43:14;33.58;;;20.42;;
10945;SDS011;5525;42.648;23.368;2023-02-28T03:45:48;33.42;;;20.55;;
10945;SDS011;5525;42.648;23.368;2023-02-28T03:48:18;33.22;;;20.65;;
10945;SDS011;5525;42.648;23.368;2023-02-28T03:50:49;33.53;;;21.85;;
10945;SDS011;5525;42.648;23.368;2023-02-28T03:53:21;37.30;;;21.88;;
10945;SDS011;5525;42.648;23.368;2023-02-28T03:55:56;42.35;;;21.73;;
10945;SDS011;5525;42.648;23.368;2023-02-28T03:58:27;35.58;;;21.35;;
10945;SDS011;5525;42.648;23.368;2023-02-28T04:00:59;39.78;;;22.17;;
10945;SDS011;5525;42.648;23.368;2023-02-28T04:03:33;38.30;;;21.77;;
10945;SDS011;5525;42.648;23.368;2023-02-28T04:06:02;39.33;;;21.13;;
10945;SDS011;5525;42.648;23.368;2023-02-28T04:08:31;38.17;;;19.92;;
10945;SDS011;5525;42.648;23.368;2023-02-28T04:11:00;40.88;;;19.55;;
10945;SDS011;5525;42.648;23.368;2023-02-28T04:13:31;40.03;;;19.95;;
10945;SDS011;5525;42.648;23.368;2023-02-28T04:15:57;44.15;;;20.52;;
10945;SDS011;5525;42.648;23.368;2023-02-28T04:18:24;38.40;;;19.55;;
10945;SDS011;5525;42.648;23.368;2023-02-28T04:20:51;34.47;;;19.08;;
10945;SDS011;5525;42.648;23.368;2023-02-28T04:23:19;34.63;;;19.75;;
10945;SDS011;5525;42.648;23.368;2023-02-28T04:25:45;35.45;;;19.80;;
10945;SDS011;5525;42.648;23.368;2023-02-28T04:28:12;34.05;;;18.17;;
10945;SDS011;5525;42.648;23.368;2023-02-28T04:30:39;31.70;;;16.77;;
10945;SDS011;5525;42.648;23.368;2023-02-28T04:33:05;32.20;;;17.42;;
10945;SDS011;5525;42.648;23.368;2023-02-28T04:35:32;29.48;;;17.60;;
10945;SDS011;5525;42.648;23.368;2023-02-28T04:37:59;34.17;;;18.02;;
10945;SDS011;5525;42.648;23.368;2023-02-28T04:40:27;34.97;;;16.60;;
10945;SDS011;5525;42.648;23.368;2023-02-28T04:42:53;34.80;;;17.63;;
10945;SDS011;5525;42.648;23.368;2023-02-28T04:45:20;31.73;;;16.65;;
10945;SDS011;5525;42.648;23.368;2023-02-28T04:47:47;34.15;;;18.77;;
10945;SDS011;5525;42.648;23.368;2023-02-28T04:50:14;30.90;;;16.13;;
10945;SDS011;5525;42.648;23.368;2023-02-28T04:52:41;31.73;;;17.75;;
10945;SDS011;5525;42.648;23.368;2023-02-28T04:55:08;33.38;;;19.08;;
10945;SDS011;5525;42.648;23.368;2023-02-28T04:57:36;44.50;;;20.55;;
10945;SDS011;5525;42.648;23.368;2023-02-28T05:00:03;50.22;;;22.17;;
10945;SDS011;5525;42.648;23.368;2023-02-28T05:02:36;65.10;;;24.10;;
10945;SDS011;5525;42.648;23.368;2023-02-28T05:05:03;55.50;;;25.95;;
10945;SDS011;5525;42.648;23.368;2023-02-28T05:07:30;63.55;;;26.77;;
10945;SDS011;5525;42.648;23.368;2023-02-28T05:09:57;51.25;;;26.58;;
10945;SDS011;5525;42.648;23.368;2023-02-28T05:12:23;53.20;;;26.75;;
10945;SDS011;5525;42.648;23.368;2023-02-28T05:14:51;72.47;;;28.13;;
10945;SDS011;5525;42.648;23.368;2023-02-28T05:17:18;64.63;;;27.58;;
10945;SDS011;5525;42.648;23.368;2023-02-28T05:19:45;53.03;;;26.52;;
10945;SDS011;5525;42.648;23.368;2023-02-28T05:22:12;56.05;;;27.10;;
10945;SDS011;5525;42.648;23.368;2023-02-28T05:24:41;52.83;;;25.92;;
10945;SDS011;5525;42.648;23.368;2023-02-28T05:27:08;48.28;;;25.48;;
10945;SDS011;5525;42.648;23.368;2023-02-28T05:29:35;52.20;;;25.63;;
10945;SDS011;5525;42.648;23.368;2023-02-28T05:32:08;46.92;;;25.80;;
10945;SDS011;5525;42.648;23.368;2023-02-28T05:34:36;41.05;;;23.92;;
10945;SDS011;5525;42.648;23.368;2023-02-28T05:37:03;45.20;;;24.70;;
10945;SDS011;5525;42.648;23.368;2023-02-28T05:39:30;44.50;;;24.67;;
10945;SDS011;5525;42.648;23.368;2023-02-28T05:41:57;46.50;;;24.95;;
10945;SDS011;5525;42.648;23.368;2023-02-28T05:44:23;41.03;;;23.65;;
10945;SDS011;5525;42.648;23.368;2023-02-28T05:46:50;38.72;;;21.60;;
10945;SDS011;5525;42.648;23.368;2023-02-28T05:49:18;41.42;;;22.35;;
10945;SDS011;5525;42.648;23.368;2023-02-28T05:51:45;36.25;;;20.65;;
10945;SDS011;5525;42.648;23.368;2023-02-28T05:54:12;37.10;;;21.65;;
10945;SDS011;5525;42.648;23.368;2023-02-28T05:56:38;35.88;;;21.58;;
10945;SDS011;5525;42.648;23.368;2023-02-28T05:59:09;36.75;;;20.75;;
10945;SDS011;5525;42.648;23.368;2023-02-28T06:01:36;40.75;;;21.88;;
10945;SDS011;5525;42.648;23.368;2023-02-28T06:04:05;35.05;;;20.88;;
10945;SDS011;5525;42.648;23.368;2023-02-28T06:06:34;39.30;;;21.35;;
10945;SDS011;5525;42.648;23.368;2023-02-28T06:09:02;36.08;;;21.15;;
10945;SDS011;5525;42.648;23.368;2023-02-28T06:11:29;37.90;;;22.05;;
10945;SDS011;5525;42.648;23.368;2023-02-28T06:13:57;44.35;;;24.55;;
10945;SDS011;5525;42.648;23.368;2023-02-28T06:16:25;35.78;;;20.50;;
10945;SDS011;5525;42.648;23.368;2023-02-28T06:18:53;33.60;;;20.13;;
10945;SDS011;5525;42.648;23.368;2023-02-28T06:21:21;31.65;;;19.70;;
10945;SDS011;5525;42.648;23.368;2023-02-28T06:23:49;31.10;;;19.92;;
10945;SDS011;5525;42.648;23.368;2023-02-28T06:26:16;32.45;;;19.67;;
10945;SDS011;5525;42.648;23.368;2023-02-28T06:28:43;27.75;;;17.35;;
10945;SDS011;5525;42.648;23.368;2023-02-28T06:31:10;28.52;;;17.60;;
10945;SDS011;5525;42.648;23.368;2023-02-28T06:33:39;25.40;;;16.95;;
10945;SDS011;5525;42.648;23.368;2023-02-28T06:36:08;26.02;;;16.90;;
10945;SDS011;5525;42.648;23.368;2023-02-28T06:38:36;25.73;;;16.33;;
10945;SDS011;5525;42.648;23.368;2023-02-28T06:41:05;29.88;;;17.33;;
10945;SDS011;5525;42.648;23.368;2023-02-28T06:43:33;28.90;;;17.58;;
10945;SDS011;5525;42.648;23.368;2023-02-28T06:46:03;24.23;;;16.75;;
10945;SDS011;5525;42.648;23.368;2023-02-28T06:48:30;25.08;;;16.17;;
10945;SDS011;5525;42.648;23.368;2023-02-28T06:51:04;25.42;;;16.50;;
10945;SDS011;5525;42.648;23.368;2023-02-28T06:53:32;26.92;;;15.75;;
10945;SDS011;5525;42.648;23.368;2023-02-28T06:55:59;26.35;;;17.05;;
10945;SDS011;5525;42.648;23.368;2023-02-28T06:58:27;24.85;;;17.02;;
10945;SDS011;5525;42.648;23.368;2023-02-28T07:00:53;28.35;;;17.48;;
10945;SDS011;5525;42.648;23.368;2023-02-28T07:03:21;26.85;;;18.35;;
10945;SDS011;5525;42.648;23.368;2023-02-28T07:05:48;33.15;;;19.27;;
10945;SDS011;5525;42.648;23.368;2023-02-28T07:08:16;29.80;;;19.17;;
10945;SDS011;5525;42.648;23.368;2023-02-28T07:10:42;32.20;;;20.83;;
10945;SDS011;5525;42.648;23.368;2023-02-28T07:13:10;30.88;;;19.65;;
10945;SDS011;5525;42.648;23.368;2023-02-28T07:15:38;31.10;;;20.50;;
10945;SDS011;5525;42.648;23.368;2023-02-28T07:18:05;32.63;;;20.38;;
10945;SDS011;5525;42.648;23.368;2023-02-28T07:20:31;30.27;;;20.38;;
10945;SDS011;5525;42.648;23.368;2023-02-28T07:22:58;36.25;;;22.67;;
10945;SDS011;5525;42.648;23.368;2023-02-28T07:25:26;34.58;;;20.92;;
10945;SDS011;5525;42.648;23.368;2023-02-28T07:27:53;37.28;;;21.15;;
10945;SDS011;5525;42.648;23.368;2023-02-28T07:30:21;34.15;;;21.30;;
10945;SDS011;5525;42.648;23.368;2023-02-28T07:32:49;31.38;;;19.70;;
10945;SDS011;5525;42.648;23.368;2023-02-28T07:35:16;30.08;;;19.75;;
10945;SDS011;5525;42.648;23.368;2023-02-28T07:37:42;25.88;;;18.13;;
10945;SDS011;5525;42.648;23.368;2023-02-28T07:40:10;27.92;;;17.40;;
10945;SDS011;5525;42.648;23.368;2023-02-28T07:42:38;28.25;;;17.00;;
10945;SDS011;5525;42.648;23.368;2023-02-28T07:45:05;24.67;;;15.55;;
10945;SDS011;5525;42.648;23.368;2023-02-28T07:47:33;28.10;;;15.32;;
10945;SDS011;5525;42.648;23.368;2023-02-28T07:50:02;25.92;;;16.48;;
10945;SDS011;5525;42.648;23.368;2023-02-28T07:52:29;22.45;;;14.98;;
10945;SDS011;5525;42.648;23.368;2023-02-28T07:54:55;21.92;;;14.35;;
10945;SDS011;5525;42.648;23.368;2023-02-28T07:57:22;24.50;;;15.68;;
10945;SDS011;5525;42.648;23.368;2023-02-28T07:59:49;25.20;;;15.75;;
10945;SDS011;5525;42.648;23.368;2023-02-28T08:02:16;23.70;;;16.20;;
10945;SDS011;5525;42.648;23.368;2023-02-28T08:04:44;24.77;;;15.30;;
10945;SDS011;5525;42.648;23.368;2023-02-28T08:07:13;24.40;;;14.00;;
10945;SDS011;5525;42.648;23.368;2023-02-28T08:09:41;24.25;;;14.50;;
10945;SDS011;5525;42.648;23.368;2023-02-28T08:12:08;25.85;;;15.50;;
10945;SDS011;5525;42.648;23.368;2023-02-28T08:14:36;24.00;;;15.38;;
10945;SDS011;5525;42.648;23.368;2023-02-28T08:17:04;24.20;;;15.00;;
10945;SDS011;5525;42.648;23.368;2023-02-28T08:19:31;25.27;;;15.52;;
10945;SDS011;5525;42.648;23.368;2023-02-28T08:21:58;24.27;;;15.65;;
10945;SDS011;5525;42.648;23.368;2023-02-28T08:24:26;25.55;;;14.73;;
10945;SDS011;5525;42.648;23.368;2023-02-28T08:26:53;24.73;;;15.63;;
10945;SDS011;5525;42.648;23.368;2023-02-28T08:29:20;23.73;;;14.73;;
10945;SDS011;5525;42.648;23.368;2023-02-28T08:31:47;23.27;;;14.40;;
10945;SDS011;5525;42.648;23.368;2023-02-28T08:34:14;23.73;;;14.68;;
10945;SDS011;5525;42.648;23.368;2023-02-28T08:36:42;28.63;;;14.90;;
10945;SDS011;5525;42.648;23.368;2023-02-28T08:39:09;21.55;;;15.32;;
10945;SDS011;5525;42.648;23.368;2023-02-28T08:41:38;25.17;;;14.63;;
10945;SDS011;5525;42.648;23.368;2023-02-28T08:44:04;23.48;;;14.90;;
10945;SDS011;5525;42.648;23.368;2023-02-28T08:46:31;22.70;;;13.43;;
10945;SDS011;5525;42.648;23.368;2023-02-28T08:48:58;20.45;;;12.98;;
10945;SDS011;5525;42.648;23.368;2023-02-28T08:51:25;24.10;;;13.95;;
10945;SDS011;5525;42.648;23.368;2023-02-28T08:53:52;23.00;;;14.10;;
10945;SDS011;5525;42.648;23.368;2023-02-28T08:56:20;24.92;;;13.77;;
10945;SDS011;5525;42.648;23.368;2023-02-28T08:58:49;23.67;;;13.35;;
10945;SDS011;5525;42.648;23.368;2023-02-28T09:01:17;24.95;;;13.93;;
10945;SDS011;5525;42.648;23.368;2023-02-28T09:03:46;22.15;;;13.73;;
10945;SDS011;5525;42.648;23.368;2023-02-28T09:06:14;21.70;;;12.70;;
10945;SDS011;5525;42.648;23.368;2023-02-28T09:08:42;21.58;;;12.70;;
10945;SDS011;5525;42.648;23.368;2023-02-28T09:11:09;24.63;;;15.32;;
10945;SDS011;5525;42.648;23.368;2023-02-28T09:13:36;24.85;;;14.02;;
10945;SDS011;5525;42.648;23.368;2023-02-28T09:16:06;24.15;;;13.43;;
10945;SDS011;5525;42.648;23.368;2023-02-28T09:18:34;25.40;;;13.15;;
10945;SDS011;5525;42.648;23.368;2023-02-28T09:21:02;20.55;;;12.60;;
10945;SDS011;5525;42.648;23.368;2023-02-28T09:23:29;21.27;;;13.43;;
10945;SDS011;5525;42.648;23.368;2023-02-28T09:25:56;22.15;;;13.30;;
10945;SDS011;5525;42.648;23.368;2023-02-28T09:28:23;23.30;;;13.77;;
10945;SDS011;5525;42.648;23.368;2023-02-28T09:30:51;20.83;;;14.15;;
10945;SDS011;5525;42.648;23.368;2023-02-28T09:33:21;26.83;;;13.82;;
10945;SDS011;5525;42.648;23.368;2023-02-28T09:35:48;23.35;;;14.05;;
10945;SDS011;5525;42.648;23.368;2023-02-28T09:38:15;23.73;;;14.55;;
10945;SDS011;5525;42.648;23.368;2023-02-28T09:40:45;24.20;;;14.05;;
10945;SDS011;5525;42.648;23.368;2023-02-28T09:43:15;22.38;;;12.43;;
10945;SDS011;5525;42.648;23.368;2023-02-28T09:45:46;20.67;;;12.60;;
10945;SDS011;5525;42.648;23.368;2023-02-28T09:48:18;20.65;;;12.27;;
10945;SDS011;5525;42.648;23.368;2023-02-28T09:51:00;18.75;;;11.55;;
10945;SDS011;5525;42.648;23.368;2023-02-28T09:53:30;20.75;;;12.25;;
10945;SDS011;5525;42.648;23.368;2023-02-28T09:55:59;23.05;;;12.07;;
10945;SDS011;5525;42.648;23.368;2023-02-28T09:58:32;19.75;;;12.07;;
10945;SDS011;5525;42.648;23.368;2023-02-28T10:01:06;20.52;;;12.25;;
10945;SDS011;5525;42.648;23.368;2023-02-28T10:03:40;23.90;;;12.88;;
10945;SDS011;5525;42.648;23.368;2023-02-28T10:06:13;18.90;;;12.52;;
10945;SDS011;5525;42.648;23.368;2023-02-28T10:08:45;19.65;;;12.13;;
10945;SDS011;5525;42.648;23.368;2023-02-28T10:11:19;22.52;;;13.32;;
10945;SDS011;5525;42.648;23.368;2023-02-28T10:13:52;20.98;;;12.10;;
10945;SDS011;5525;42.648;23.368;2023-02-28T10:16:31;21.98;;;11.35;;
10945;SDS011;5525;42.648;23.368;2023-02-28T10:19:04;19.60;;;11.75;;
10945;SDS011;5525;42.648;23.368;2023-02-28T10:21:35;20.23;;;11.68;;
10945;SDS011;5525;42.648;23.368;2023-02-28T10:24:08;19.30;;;11.98;;
10945;SDS011;5525;42.648;23.368;2023-02-28T10:26:43;20.80;;;11.57;;
10945;SDS011;5525;42.648;23.368;2023-02-28T10:29:11;21.23;;;11.93;;
10945;SDS011;5525;42.648;23.368;2023-02-28T10:31:38;21.33;;;11.50;;
10945;SDS011;5525;42.648;23.368;2023-02-28T10:34:07;21.10;;;11.43;;
10945;SDS011;5525;42.648;23.368;2023-02-28T10:36:37;20.48;;;11.50;;
10945;SDS011;5525;42.648;23.368;2023-02-28T10:42:02;20.17;;;10.52;;
10945;SDS011;5525;42.648;23.368;2023-02-28T10:44:29;16.92;;;10.55;;
10945;SDS011;5525;42.648;23.368;2023-02-28T10:46:56;20.27;;;10.93;;
10945;SDS011;5525;42.648;23.368;2023-02-28T10:49:25;17.63;;;10.95;;
10945;SDS011;5525;42.648;23.368;2023-02-28T10:51:54;17.70;;;11.48;;
10945;SDS011;5525;42.648;23.368;2023-02-28T10:54:23;19.20;;;11.15;;
10945;SDS011;5525;42.648;23.368;2023-02-28T10:59:43;22.33;;;11.55;;
10945;SDS011;5525;42.648;23.368;2023-02-28T11:04:58;24.23;;;12.18;;
10945;SDS011;5525;42.648;23.368;2023-02-28T11:07:26;17.70;;;10.82;;
10945;SDS011;5525;42.648;23.368;2023-02-28T11:09:54;18.65;;;10.40;;
10945;SDS011;5525;42.648;23.368;2023-02-28T11:12:23;18.90;;;11.50;;
10945;SDS011;5525;42.648;23.368;2023-02-28T11:14:53;20.38;;;11.88;;
10945;SDS011;5525;42.648;23.368;2023-02-28T11:17:22;24.17;;;11.35;;
10945;SDS011;5525;42.648;23.368;2023-02-28T11:19:51;19.75;;;12.05;;
10945;SDS011;5525;42.648;23.368;2023-02-28T11:22:23;21.63;;;11.85;;
10945;SDS011;5525;42.648;23.368;2023-02-28T11:24:53;19.77;;;10.98;;
10945;SDS011;5525;42.648;23.368;2023-02-28T11:27:26;21.33;;;11.60;;
10945;SDS011;5525;42.648;23.368;2023-02-28T11:30:22;22.70;;;12.50;;
10945;SDS011;5525;42.648;23.368;2023-02-28T11:32:54;19.67;;;12.02;;
10945;SDS011;5525;42.648;23.368;2023-02-28T11:35:22;20.15;;;12.60;;
10945;SDS011;5525;42.648;23.368;2023-02-28T11:37:53;19.02;;;11.18;;
10945;SDS011;5525;42.648;23.368;2023-02-28T11:40:22;20.70;;;12.75;;
10945;SDS011;5525;42.648;23.368;2023-02-28T11:42:57;18.90;;;12.40;;
10945;SDS011;5525;42.648;23.368;2023-02-28T11:45:42;17.00;;;12.38;;
10945;SDS011;5525;42.648;23.368;2023-02-28T11:48:17;23.63;;;13.25;;
10945;SDS011;5525;42.648;23.368;2023-02-28T11:56:36;19.92;;;13.15;;
10945;SDS011;5525;42.648;23.368;2023-02-28T11:59:10;20.00;;;12.90;;
10945;SDS011;5525;42.648;23.368;2023-02-28T12:01:57;19.58;;;12.13;;
10945;SDS011;5525;42.648;23.368;2023-02-28T12:04:34;23.50;;;12.80;;
10945;SDS011;5525;42.648;23.368;2023-02-28T12:07:16;20.55;;;13.70;;
10945;SDS011;5525;42.648;23.368;2023-02-28T12:09:56;17.13;;;11.73;;
10945;SDS011;5525;42.648;23.368;2023-02-28T12:12:34;19.92;;;11.88;;
10945;SDS011;5525;42.648;23.368;2023-02-28T12:15:18;20.30;;;12.80;;
10945;SDS011;5525;42.648;23.368;2023-02-28T12:17:57;18.08;;;12.15;;
10945;SDS011;5525;42.648;23.368;2023-02-28T12:20:33;20.40;;;12.18;;
10945;SDS011;5525;42.648;23.368;2023-02-28T12:26:03;19.13;;;11.90;;
10945;SDS011;5525;42.648;23.368;2023-02-28T12:28:40;21.10;;;11.40;;
10945;SDS011;5525;42.648;23.368;2023-02-28T12:31:13;20.95;;;12.60;;
10945;SDS011;5525;42.648;23.368;2023-02-28T12:33:46;20.63;;;11.88;;
10945;SDS011;5525;42.648;23.368;2023-02-28T12:36:18;18.88;;;11.95;;
10945;SDS011;5525;42.648;23.368;2023-02-28T12:38:50;20.88;;;12.27;;
10945;SDS011;5525;42.648;23.368;2023-02-28T12:41:22;21.88;;;11.48;;
10945;SDS011;5525;42.648;23.368;2023-02-28T12:43:55;20.85;;;11.63;;
10945;SDS011;5525;42.648;23.368;2023-02-28T12:46:28;17.70;;;11.57;;
10945;SDS011;5525;42.648;23.368;2023-02-28T12:49:04;20.60;;;12.40;;
10945;SDS011;5525;42.648;23.368;2023-02-28T12:51:34;17.30;;;11.32;;
10945;SDS011;5525;42.648;23.368;2023-02-28T12:54:04;17.83;;;11.15;;
10945;SDS011;5525;42.648;23.368;2023-02-28T12:56:43;19.55;;;11.27;;
10945;SDS011;5525;42.648;23.368;2023-02-28T12:59:17;17.52;;;11.32;;
10945;SDS011;5525;42.648;23.368;2023-02-28T13:04:57;21.15;;;11.32;;
10945;SDS011;5525;42.648;23.368;2023-02-28T13:10:36;21.23;;;10.98;;
10945;SDS011;5525;42.648;23.368;2023-02-28T13:13:11;17.67;;;10.98;;
10945;SDS011;5525;42.648;23.368;2023-02-28T13:15:41;19.42;;;11.23;;
10945;SDS011;5525;42.648;23.368;2023-02-28T13:18:28;18.92;;;12.05;;
10945;SDS011;5525;42.648;23.368;2023-02-28T13:20:58;18.25;;;10.80;;
10945;SDS011;5525;42.648;23.368;2023-02-28T13:29:31;14.98;;;9.65;;
10945;SDS011;5525;42.648;23.368;2023-02-28T13:34:49;20.45;;;9.45;;
10945;SDS011;5525;42.648;23.368;2023-02-28T13:38:15;12.35;;;8.27;;
10945;SDS011;5525;42.648;23.368;2023-02-28T13:44:07;16.50;;;9.60;;
10945;SDS011;5525;42.648;23.368;2023-02-28T13:46:38;19.75;;;9.38;;
10945;SDS011;5525;42.648;23.368;2023-02-28T13:52:47;15.77;;;8.93;;
10945;SDS011;5525;42.648;23.368;2023-02-28T13:55:23;22.85;;;10.23;;
10945;SDS011;5525;42.648;23.368;2023-02-28T13:58:01;17.30;;;9.65;;
10945;SDS011;5525;42.648;23.368;2023-02-28T14:00:42;16.55;;;8.55;;
10945;SDS011;5525;42.648;23.368;2023-02-28T14:03:37;17.17;;;8.68;;
10945;SDS011;5525;42.648;23.368;2023-02-28T14:06:15;20.85;;;10.40;;
10945;SDS011;5525;42.648;23.368;2023-02-28T14:08:52;17.42;;;10.40;;
10945;SDS011;5525;42.648;23.368;2023-02-28T14:11:25;18.63;;;10.43;;
10945;SDS011;5525;42.648;23.368;2023-02-28T14:13:55;17.48;;;10.18;;
10945;SDS011;5525;42.648;23.368;2023-02-28T14:16:22;19.83;;;10.65;;
10945;SDS011;5525;42.648;23.368;2023-02-28T14:18:54;21.98;;;11.02;;
10945;SDS011;5525;42.648;23.368;2023-02-28T14:21:24;19.60;;;10.32;;
10945;SDS011;5525;42.648;23.368;2023-02-28T14:27:17;18.98;;;10.27;;
10945;SDS011;5525;42.648;23.368;2023-02-28T14:30:02;20.95;;;10.77;;
10945;SDS011;5525;42.648;23.368;2023-02-28T14:32:40;20.58;;;10.90;;
10945;SDS011;5525;42.648;23.368;2023-02-28T14:35:22;20.95;;;10.77;;
10945;SDS011;5525;42.648;23.368;2023-02-28T14:38:11;17.25;;;9.93;;
10945;SDS011;5525;42.648;23.368;2023-02-28T14:40:43;21.20;;;10.52;;
10945;SDS011;5525;42.648;23.368;2023-02-28T14:43:19;21.67;;;10.63;;
10945;SDS011;5525;42.648;23.368;2023-02-28T14:45:49;17.92;;;9.95;;
10945;SDS011;5525;42.648;23.368;2023-02-28T14:48:17;19.75;;;9.85;;
10945;SDS011;5525;42.648;23.368;2023-02-28T14:50:47;15.73;;;9.73;;
10945;SDS011;5525;42.648;23.368;2023-02-28T14:53:17;17.67;;;10.30;;
10945;SDS011;5525;42.648;23.368;2023-02-28T14:55:47;16.90;;;10.45;;
10945;SDS011;5525;42.648;23.368;2023-02-28T14:58:23;19.30;;;10.48;;
10945;SDS011;5525;42.648;23.368;2023-02-28T15:00:52;23.67;;;10.65;;
10945;SDS011;5525;42.648;23.368;2023-02-28T15:03:21;24.67;;;11.38;;
10945;SDS011;5525;42.648;23.368;2023-02-28T15:05:52;19.05;;;10.32;;
10945;SDS011;5525;42.648;23.368;2023-02-28T15:08:21;17.45;;;9.23;;
10945;SDS011;5525;42.648;23.368;2023-02-28T15:10:51;20.73;;;10.32;;
10945;SDS011;5525;42.648;23.368;2023-02-28T15:13:20;16.58;;;9.98;;
10945;SDS011;5525;42.648;23.368;2023-02-28T15:15:49;22.77;;;10.38;;
10945;SDS011;5525;42.648;23.368;2023-02-28T15:18:24;19.50;;;9.73;;
10945;SDS011;5525;42.648;23.368;2023-02-28T15:20:55;19.23;;;9.05;;
10945;SDS011;5525;42.648;23.368;2023-02-28T15:23:25;16.02;;;8.68;;
10945;SDS011;5525;42.648;23.368;2023-02-28T15:25:52;18.98;;;9.05;;
10945;SDS011;5525;42.648;23.368;2023-02-28T15:28:20;17.15;;;9.43;;
10945;SDS011;5525;42.648;23.368;2023-02-28T15:30:54;15.07;;;9.02;;
10945;SDS011;5525;42.648;23.368;2023-02-28T15:33:23;15.57;;;8.80;;